Time;durP1;ratioP1;P1;durP2;ratioP2;P2;SDS_P1;SDS_P2;PMS_P1;PMS_P2;Temp;Humidity;BMP_temperature;BMP_pressure;BME280_temperature;BME280_humidity;BME280_pressure;Samples;Min_cycle;Max_cycle;Signal;HPM_P1;HPM_P2
2024/01/12 00:01:13;;;;;;;61.22;29.33;;;;;;;;;;4933578;29;20574;-77
2024/01/12 00:03:39;;;;;;;65.65;31.25;;;;;;;;;;4935213;29;20058;-76
2024/01/12 00:06:06;;;;;;;63.63;31.70;;;;;;;;;;4910241;29;20578;-76
2024/01/12 00:08:33;;;;;;;65.35;30.80;;;;;;;;;;4949881;29;20063;-76
2024/01/12 00:11:00;;;;;;;58.35;28.98;;;;;;;;;;4915815;29;20065;-75
2024/01/12 00:13:27;;;;;;;60.72;29.52;;;;;;;;;;4949283;29;20450;-77
2024/01/12 00:15:54;;;;;;;62.90;29.90;;;;;;;;;;4921282;29;20047;-77
2024/01/12 00:18:21;;;;;;;52.53;27.27;;;;;;;;;;4920402;29;20055;-77
2024/01/12 00:20:48;;;;;;;58.90;28.77;;;;;;;;;;4930885;29;20083;-77
2024/01/12 00:23:16;;;;;;;54.78;27.13;;;;;;;;;;4920636;29;20478;-77
2024/01/12 00:25:42;;;;;;;52.40;28.20;;;;;;;;;;4954041;29;20051;-77
2024/01/12 00:28:10;;;;;;;53.53;26.77;;;;;;;;;;4938049;29;20059;-78
2024/01/12 00:30:41;;;;;;;57.63;29.23;;;;;;;;;;4923834;29;20055;-77
2024/01/12 00:33:08;;;;;;;56.97;28.83;;;;;;;;;;4939721;29;20066;-78
2024/01/12 00:35:35;;;;;;;59.78;28.75;;;;;;;;;;4922138;29;20051;-77
2024/01/12 00:38:02;;;;;;;57.30;28.58;;;;;;;;;;4931212;29;20055;-78
2024/01/12 00:40:29;;;;;;;60.45;29.83;;;;;;;;;;4937848;29;20051;-77
2024/01/12 00:42:55;;;;;;;52.88;28.13;;;;;;;;;;4927875;29;20115;-78
2024/01/12 00:45:22;;;;;;;60.08;28.35;;;;;;;;;;4938365;29;20102;-78
2024/01/12 00:47:49;;;;;;;57.58;29.33;;;;;;;;;;4937988;29;20051;-77
2024/01/12 00:50:16;;;;;;;59.80;28.98;;;;;;;;;;4921608;29;20067;-78
2024/01/12 00:52:44;;;;;;;61.30;30.23;;;;;;;;;;4921271;29;20161;-77
2024/01/12 00:55:11;;;;;;;63.15;30.25;;;;;;;;;;4920745;29;20051;-76
2024/01/12 00:57:38;;;;;;;63.92;31.42;;;;;;;;;;4920822;29;20047;-78
2024/01/12 01:00:06;;;;;;;60.45;29.52;;;;;;;;;;4920813;29;20451;-76
2024/01/12 01:02:32;;;;;;;58.50;29.52;;;;;;;;;;4950303;28;20043;-77
2024/01/12 01:04:59;;;;;;;59.65;29.60;;;;;;;;;;4920008;29;20047;-77
2024/01/12 01:07:28;;;;;;;62.25;30.83;;;;;;;;;;4917931;29;20087;-78
2024/01/12 01:09:55;;;;;;;61.25;31.08;;;;;;;;;;4922878;29;20062;-78
2024/01/12 01:12:21;;;;;;;57.85;30.00;;;;;;;;;;4920675;29;20051;-78
2024/01/12 01:14:48;;;;;;;58.25;31.13;;;;;;;;;;4937548;29;20491;-78
2024/01/12 01:17:15;;;;;;;68.25;31.23;;;;;;;;;;4922491;29;20425;-77
2024/01/12 01:19:42;;;;;;;63.63;31.40;;;;;;;;;;4928826;28;20056;-78
2024/01/12 01:22:09;;;;;;;64.90;31.83;;;;;;;;;;4922410;29;20301;-79
2024/01/12 01:24:36;;;;;;;60.88;30.50;;;;;;;;;;4922471;29;20070;-78
2024/01/12 01:27:03;;;;;;;66.30;31.55;;;;;;;;;;4923021;29;20043;-78
2024/01/12 01:29:31;;;;;;;61.67;30.60;;;;;;;;;;4938804;29;20051;-77
2024/01/12 01:31:58;;;;;;;68.85;30.55;;;;;;;;;;4926951;29;20055;-77
2024/01/12 01:34:24;;;;;;;65.20;31.33;;;;;;;;;;4941621;29;20054;-78
2024/01/12 01:36:53;;;;;;;58.33;30.63;;;;;;;;;;4948828;29;20047;-78
2024/01/12 01:39:20;;;;;;;59.75;29.85;;;;;;;;;;4934092;29;20114;-75
2024/01/12 01:41:46;;;;;;;59.63;30.95;;;;;;;;;;4926404;29;20062;-78
2024/01/12 01:44:13;;;;;;;65.95;30.35;;;;;;;;;;4920383;29;20111;-78
2024/01/12 01:46:40;;;;;;;57.85;28.70;;;;;;;;;;4939718;29;20127;-75
2024/01/12 01:49:07;;;;;;;64.65;30.38;;;;;;;;;;4936557;28;20459;-76
2024/01/12 01:51:34;;;;;;;66.47;30.00;;;;;;;;;;4924080;28;20062;-76
2024/01/12 01:54:01;;;;;;;62.05;29.52;;;;;;;;;;4924647;29;20051;-76
2024/01/12 01:56:28;;;;;;;59.90;30.55;;;;;;;;;;4925086;29;20467;-75
2024/01/12 01:58:55;;;;;;;61.53;29.92;;;;;;;;;;4939442;29;20142;-77
2024/01/12 02:01:22;;;;;;;60.75;30.95;;;;;;;;;;4955940;29;20059;-79
2024/01/12 02:03:48;;;;;;;56.90;29.45;;;;;;;;;;4942681;29;20570;-78
2024/01/12 02:06:16;;;;;;;58.40;30.80;;;;;;;;;;4925894;29;20075;-79
2024/01/12 02:08:43;;;;;;;62.75;30.30;;;;;;;;;;4926076;28;20075;-77
2024/01/12 02:11:10;;;;;;;64.03;29.80;;;;;;;;;;4926131;29;20431;-77
2024/01/12 02:13:37;;;;;;;58.88;28.95;;;;;;;;;;4923405;29;20137;-77
2024/01/12 02:16:04;;;;;;;65.18;30.67;;;;;;;;;;4940198;29;20055;-77
2024/01/12 02:18:34;;;;;;;55.28;29.38;;;;;;;;;;4932574;29;20050;-77
2024/01/12 02:21:02;;;;;;;58.17;28.92;;;;;;;;;;4939269;29;20077;-77
2024/01/12 02:23:53;;;;;;;62.30;30.73;;;;;;;;;;4933787;29;20046;-77
2024/01/12 02:26:19;;;;;;;56.53;26.77;;;;;;;;;;4938582;29;20047;-77
2024/01/12 02:28:46;;;;;;;57.80;27.98;;;;;;;;;;4938302;29;20531;-76
2024/01/12 02:31:15;;;;;;;58.53;30.55;;;;;;;;;;4922961;29;20141;-78
2024/01/12 02:33:42;;;;;;;59.50;28.50;;;;;;;;;;4937203;29;20418;-78
2024/01/12 02:36:09;;;;;;;64.07;30.05;;;;;;;;;;4934133;29;20059;-77
2024/01/12 02:38:36;;;;;;;62.92;29.83;;;;;;;;;;4926623;29;20055;-78
2024/01/12 02:41:02;;;;;;;60.00;29.27;;;;;;;;;;4914856;29;20130;-78
2024/01/12 02:43:29;;;;;;;56.60;27.95;;;;;;;;;;4941248;29;20476;-79
2024/01/12 02:45:56;;;;;;;58.42;28.23;;;;;;;;;;4940878;29;20134;-79
2024/01/12 02:48:23;;;;;;;61.85;29.20;;;;;;;;;;4935099;29;20083;-77
2024/01/12 02:50:50;;;;;;;55.45;29.05;;;;;;;;;;4923822;29;20664;-78
2024/01/12 02:53:17;;;;;;;65.68;30.30;;;;;;;;;;4939473;29;20055;-79
2024/01/12 02:55:44;;;;;;;57.97;29.27;;;;;;;;;;4922117;29;20412;-75
2024/01/12 02:58:10;;;;;;;56.50;28.23;;;;;;;;;;4923119;29;20054;-78
2024/01/12 03:00:37;;;;;;;63.40;30.75;;;;;;;;;;4954507;29;20529;-77
2024/01/12 03:03:04;;;;;;;56.40;27.27;;;;;;;;;;4938307;29;20124;-77
2024/01/12 03:05:31;;;;;;;61.53;28.20;;;;;;;;;;4917241;29;20051;-77
2024/01/12 03:07:58;;;;;;;58.15;28.23;;;;;;;;;;4920715;29;20055;-78
2024/01/12 03:10:25;;;;;;;60.30;29.50;;;;;;;;;;4923387;29;20098;-77
2024/01/12 03:12:52;;;;;;;64.07;28.55;;;;;;;;;;4939243;29;20074;-80
2024/01/12 03:15:19;;;;;;;62.92;29.08;;;;;;;;;;4922356;29;20141;-76
2024/01/12 03:17:45;;;;;;;56.22;28.85;;;;;;;;;;4914464;29;20118;-77
2024/01/12 03:20:13;;;;;;;57.75;30.45;;;;;;;;;;4922750;29;20054;-78
2024/01/12 03:22:40;;;;;;;57.58;29.25;;;;;;;;;;4923593;29;20051;-77
2024/01/12 03:25:07;;;;;;;55.75;28.40;;;;;;;;;;4916586;29;20058;-77
2024/01/12 03:27:34;;;;;;;62.78;29.77;;;;;;;;;;4919107;29;20507;-77
2024/01/12 03:30:01;;;;;;;56.78;28.15;;;;;;;;;;4931969;29;20075;-77
2024/01/12 03:32:28;;;;;;;65.50;29.88;;;;;;;;;;4918819;29;20052;-77
2024/01/12 03:34:56;;;;;;;60.95;29.95;;;;;;;;;;4946083;28;20086;-78
2024/01/12 03:37:23;;;;;;;60.50;28.15;;;;;;;;;;4956014;29;20172;-78
2024/01/12 03:39:50;;;;;;;62.85;30.65;;;;;;;;;;4923391;29;20079;-77
2024/01/12 03:42:17;;;;;;;63.33;31.73;;;;;;;;;;4940557;29;20058;-78
2024/01/12 03:44:47;;;;;;;59.55;29.63;;;;;;;;;;4919010;29;20069;-78
2024/01/12 03:47:14;;;;;;;64.95;28.77;;;;;;;;;;4939217;29;20050;-78
2024/01/12 03:49:41;;;;;;;57.20;29.48;;;;;;;;;;4938783;29;20047;-78
2024/01/12 03:52:08;;;;;;;62.28;28.23;;;;;;;;;;4931071;28;20102;-77
2024/01/12 03:54:41;;;;;;;51.22;27.70;;;;;;;;;;4935675;29;20466;-78
2024/01/12 03:57:08;;;;;;;60.47;30.05;;;;;;;;;;4922564;29;20466;-77
2024/01/12 03:59:35;;;;;;;59.38;29.27;;;;;;;;;;4921827;29;20051;-78
2024/01/12 04:02:03;;;;;;;64.38;30.83;;;;;;;;;;4923420;29;20499;-77
2024/01/12 04:04:30;;;;;;;57.45;26.98;;;;;;;;;;4938614;29;20582;-76
2024/01/12 04:06:57;;;;;;;61.85;29.55;;;;;;;;;;4922850;29;20079;-78
2024/01/12 04:09:24;;;;;;;60.53;30.63;;;;;;;;;;4923797;29;20047;-78
2024/01/12 04:11:51;;;;;;;56.65;28.38;;;;;;;;;;4925837;29;20059;-78
2024/01/12 04:14:17;;;;;;;55.00;28.20;;;;;;;;;;4935523;29;20051;-78
2024/01/12 04:16:44;;;;;;;57.35;27.92;;;;;;;;;;4926548;29;20298;-78
2024/01/12 04:19:11;;;;;;;57.80;29.10;;;;;;;;;;4918950;29;20448;-77
2024/01/12 04:21:38;;;;;;;65.43;31.10;;;;;;;;;;4935448;29;20070;-77
2024/01/12 04:24:05;;;;;;;66.13;30.92;;;;;;;;;;4941894;29;20047;-77
2024/01/12 04:26:32;;;;;;;57.80;27.33;;;;;;;;;;4930612;28;20047;-77
2024/01/12 04:28:59;;;;;;;53.85;27.02;;;;;;;;;;4925870;28;20056;-77
2024/01/12 04:31:25;;;;;;;61.72;29.33;;;;;;;;;;4938900;29;20427;-78
2024/01/12 04:33:52;;;;;;;63.17;27.38;;;;;;;;;;4922543;29;20055;-76
2024/01/12 04:36:22;;;;;;;60.47;29.77;;;;;;;;;;4920127;29;20511;-77
2024/01/12 04:38:49;;;;;;;56.65;26.77;;;;;;;;;;4920993;29;20133;-77
2024/01/12 04:41:16;;;;;;;57.28;28.60;;;;;;;;;;4920763;29;20055;-77
2024/01/12 04:43:43;;;;;;;52.55;26.70;;;;;;;;;;4921067;29;20062;-77
2024/01/12 04:46:10;;;;;;;64.28;27.85;;;;;;;;;;4918525;29;20138;-77
2024/01/12 04:48:37;;;;;;;50.83;25.52;;;;;;;;;;4934085;29;20043;-77
2024/01/12 04:51:04;;;;;;;56.22;26.10;;;;;;;;;;4914108;29;20054;-77
2024/01/12 04:53:31;;;;;;;59.35;28.42;;;;;;;;;;4920985;29;20055;-76
2024/01/12 04:55:58;;;;;;;53.50;26.75;;;;;;;;;;4917825;29;20059;-76
2024/01/12 04:58:25;;;;;;;58.53;27.73;;;;;;;;;;4936701;29;20050;-77
2024/01/12 05:00:52;;;;;;;56.08;27.08;;;;;;;;;;4921190;29;20058;-77
2024/01/12 05:03:19;;;;;;;66.65;29.60;;;;;;;;;;4921363;29;20047;-77
2024/01/12 05:05:46;;;;;;;63.17;26.70;;;;;;;;;;4919125;29;20405;-78
2024/01/12 05:08:13;;;;;;;60.78;27.83;;;;;;;;;;4921133;29;20047;-77
2024/01/12 05:10:40;;;;;;;57.92;28.02;;;;;;;;;;4920499;29;20052;-78
2024/01/12 05:13:07;;;;;;;63.33;29.52;;;;;;;;;;4938453;29;20055;-77
2024/01/12 05:15:34;;;;;;;57.63;29.20;;;;;;;;;;4931823;29;20129;-78
2024/01/12 05:18:01;;;;;;;52.75;27.27;;;;;;;;;;4937691;29;20047;-77
2024/01/12 05:20:29;;;;;;;60.22;28.35;;;;;;;;;;4917530;29;20071;-77
2024/01/12 05:22:56;;;;;;;53.25;25.98;;;;;;;;;;4931301;28;20055;-77
2024/01/12 05:25:23;;;;;;;52.05;25.95;;;;;;;;;;4935841;29;20561;-77
2024/01/12 05:27:50;;;;;;;54.15;25.92;;;;;;;;;;4919893;29;20059;-77
2024/01/12 05:30:17;;;;;;;57.33;27.05;;;;;;;;;;4916449;29;20511;-77
2024/01/12 05:32:45;;;;;;;53.97;29.15;;;;;;;;;;4942962;29;20085;-77
2024/01/12 05:35:12;;;;;;;53.70;27.67;;;;;;;;;;4920227;29;20051;-76
2024/01/12 05:37:41;;;;;;;51.75;27.15;;;;;;;;;;4936248;29;20063;-77
2024/01/12 05:40:08;;;;;;;57.78;26.50;;;;;;;;;;4919677;29;20625;-77
2024/01/12 05:42:35;;;;;;;51.70;25.77;;;;;;;;;;4920611;29;20459;-77
2024/01/12 05:45:02;;;;;;;55.85;27.95;;;;;;;;;;4920233;29;20578;-77
2024/01/12 05:47:29;;;;;;;58.70;26.95;;;;;;;;;;4920307;29;20051;-77
2024/01/12 05:49:56;;;;;;;63.88;29.65;;;;;;;;;;4922624;29;20138;-77
2024/01/12 05:52:23;;;;;;;67.95;31.33;;;;;;;;;;4920821;29;20129;-77
2024/01/12 05:54:51;;;;;;;60.67;28.35;;;;;;;;;;4920295;29;20468;-77
2024/01/12 05:57:18;;;;;;;58.97;27.23;;;;;;;;;;4921173;29;20134;-77
2024/01/12 05:59:45;;;;;;;53.50;26.13;;;;;;;;;;4934947;29;20052;-77
2024/01/12 06:02:14;;;;;;;55.38;27.73;;;;;;;;;;4935909;29;20050;-77
2024/01/12 06:04:42;;;;;;;51.67;26.52;;;;;;;;;;4920587;29;20415;-77
2024/01/12 06:07:09;;;;;;;53.45;28.80;;;;;;;;;;4923058;29;20062;-77
2024/01/12 06:09:35;;;;;;;56.25;28.67;;;;;;;;;;4930411;29;20578;-78
2024/01/12 06:12:02;;;;;;;53.35;26.67;;;;;;;;;;4937125;29;20051;-76
2024/01/12 06:14:29;;;;;;;59.33;27.95;;;;;;;;;;4936758;29;20055;-77
2024/01/12 06:16:56;;;;;;;54.63;25.48;;;;;;;;;;4921060;29;20082;-76
2024/01/12 06:19:24;;;;;;;61.78;29.52;;;;;;;;;;4923003;29;20054;-77
2024/01/12 06:21:51;;;;;;;61.15;28.23;;;;;;;;;;4939829;29;20051;-78
2024/01/12 06:24:18;;;;;;;60.45;29.33;;;;;;;;;;4944232;29;20070;-79
2024/01/12 06:26:45;;;;;;;65.65;27.40;;;;;;;;;;4925853;29;20051;-78
2024/01/12 06:29:12;;;;;;;57.70;28.85;;;;;;;;;;4924185;29;20517;-77
2024/01/12 06:31:38;;;;;;;61.75;29.35;;;;;;;;;;4924012;29;20059;-77
2024/01/12 06:34:05;;;;;;;62.33;30.20;;;;;;;;;;4922954;29;20055;-77
2024/01/12 06:36:32;;;;;;;60.15;28.35;;;;;;;;;;4938648;29;20065;-77
2024/01/12 06:38:59;;;;;;;55.90;27.35;;;;;;;;;;4919589;29;20173;-76
2024/01/12 06:41:26;;;;;;;63.05;29.30;;;;;;;;;;4938428;29;20051;-77
2024/01/12 06:43:53;;;;;;;61.92;30.23;;;;;;;;;;4938182;29;20051;-76
2024/01/12 06:46:19;;;;;;;60.17;28.13;;;;;;;;;;4922522;29;20081;-76
2024/01/12 06:48:46;;;;;;;62.13;27.85;;;;;;;;;;4940169;29;20130;-77
2024/01/12 06:51:21;;;;;;;57.95;27.10;;;;;;;;;;4938092;29;20067;-76
2024/01/12 06:53:48;;;;;;;58.88;27.67;;;;;;;;;;4922636;29;20478;-77
2024/01/12 06:56:21;;;;;;;55.60;27.55;;;;;;;;;;4922760;29;20057;-78
2024/01/12 06:58:48;;;;;;;61.72;27.48;;;;;;;;;;4931045;29;20051;-78
2024/01/12 07:01:18;;;;;;;55.05;27.70;;;;;;;;;;4925547;29;20055;-79
2024/01/12 07:03:45;;;;;;;59.40;28.35;;;;;;;;;;4925670;29;20047;-78
2024/01/12 07:06:12;;;;;;;61.25;27.88;;;;;;;;;;4921488;29;20109;-79
2024/01/12 07:08:39;;;;;;;56.80;26.05;;;;;;;;;;4941340;29;20050;-78
2024/01/12 07:11:07;;;;;;;61.15;28.45;;;;;;;;;;4930913;29;20067;-77
2024/01/12 07:13:34;;;;;;;61.85;30.17;;;;;;;;;;4920564;29;20517;-80
2024/01/12 07:16:03;;;;;;;53.58;27.05;;;;;;;;;;4928279;29;20400;-79
2024/01/12 07:18:29;;;;;;;59.30;29.08;;;;;;;;;;4939387;28;20122;-78
2024/01/12 07:21:02;;;;;;;68.60;30.52;;;;;;;;;;4937608;29;20055;-78
2024/01/12 07:23:30;;;;;;;59.60;26.58;;;;;;;;;;4936336;29;20047;-78
2024/01/12 07:25:58;;;;;;;65.28;27.70;;;;;;;;;;4922251;29;20558;-77
2024/01/12 07:28:25;;;;;;;52.97;27.02;;;;;;;;;;4920697;29;20077;-78
2024/01/12 07:30:55;;;;;;;56.42;29.40;;;;;;;;;;4937648;29;20508;-78
2024/01/12 07:33:22;;;;;;;59.78;28.80;;;;;;;;;;4924159;29;20047;-78
2024/01/12 07:35:49;;;;;;;59.67;27.88;;;;;;;;;;4940555;29;20055;-79
2024/01/12 07:38:16;;;;;;;59.95;29.23;;;;;;;;;;4924298;29;20083;-79
2024/01/12 07:40:43;;;;;;;57.97;28.38;;;;;;;;;;4922766;29;20057;-78
2024/01/12 07:43:10;;;;;;;62.50;30.85;;;;;;;;;;4924355;29;20079;-78
2024/01/12 07:45:37;;;;;;;60.20;29.25;;;;;;;;;;4925215;29;20553;-78
2024/01/12 07:48:04;;;;;;;56.65;27.00;;;;;;;;;;4924959;29;20055;-78
2024/01/12 07:50:31;;;;;;;57.65;28.50;;;;;;;;;;4924638;29;20074;-78
2024/01/12 07:52:58;;;;;;;53.50;28.52;;;;;;;;;;4925389;29;20086;-78
2024/01/12 07:55:25;;;;;;;55.90;27.15;;;;;;;;;;4940561;29;20062;-79
2024/01/12 07:57:52;;;;;;;53.53;26.85;;;;;;;;;;4934243;29;20079;-79
2024/01/12 08:00:19;;;;;;;53.50;27.25;;;;;;;;;;4924893;29;20142;-78
2024/01/12 08:02:46;;;;;;;62.78;29.55;;;;;;;;;;4940074;28;20050;-77
2024/01/12 08:05:12;;;;;;;58.42;27.88;;;;;;;;;;4916462;29;20102;-78
2024/01/12 08:07:39;;;;;;;56.50;27.75;;;;;;;;;;4921115;29;20051;-77
2024/01/12 08:10:08;;;;;;;60.03;29.25;;;;;;;;;;4917130;29;20048;-77
2024/01/12 08:12:35;;;;;;;66.15;31.63;;;;;;;;;;4934569;29;20106;-77
2024/01/12 08:15:03;;;;;;;64.13;29.85;;;;;;;;;;4921490;29;20059;-78
2024/01/12 08:17:31;;;;;;;61.05;28.90;;;;;;;;;;4937389;29;20569;-77
2024/01/12 08:19:58;;;;;;;56.92;28.73;;;;;;;;;;4914223;29;20086;-75
2024/01/12 08:22:25;;;;;;;57.10;29.27;;;;;;;;;;4921046;29;20070;-77
2024/01/12 08:24:52;;;;;;;58.90;29.30;;;;;;;;;;4917600;29;20185;-79
2024/01/12 08:27:19;;;;;;;61.83;29.40;;;;;;;;;;4922307;29;20089;-78
2024/01/12 08:29:46;;;;;;;58.10;29.20;;;;;;;;;;4907486;28;20047;-77
2024/01/12 08:32:13;;;;;;;62.03;29.58;;;;;;;;;;4933557;29;20114;-77
2024/01/12 08:34:39;;;;;;;58.42;27.52;;;;;;;;;;4919966;29;20051;-77
2024/01/12 08:37:07;;;;;;;62.33;29.65;;;;;;;;;;4920381;29;20054;-77
2024/01/12 08:39:34;;;;;;;57.63;30.33;;;;;;;;;;4927206;28;20137;-77
2024/01/12 08:42:00;;;;;;;61.13;28.75;;;;;;;;;;4919033;29;20692;-76
2024/01/12 08:44:28;;;;;;;61.25;31.05;;;;;;;;;;4914799;29;20044;-76
2024/01/12 08:46:55;;;;;;;63.22;30.15;;;;;;;;;;4918542;29;20063;-77
2024/01/12 08:49:21;;;;;;;63.83;30.83;;;;;;;;;;4917464;29;20039;-75
2024/01/12 08:51:49;;;;;;;55.00;28.83;;;;;;;;;;4932362;29;20146;-76
2024/01/12 08:54:16;;;;;;;61.92;30.17;;;;;;;;;;4924218;29;20054;-76
2024/01/12 08:56:43;;;;;;;62.85;30.13;;;;;;;;;;4916926;29;20086;-76
2024/01/12 08:59:10;;;;;;;56.08;28.40;;;;;;;;;;4919113;29;20047;-76
2024/01/12 09:01:36;;;;;;;52.53;27.02;;;;;;;;;;4926381;29;20471;-79
2024/01/12 09:04:04;;;;;;;49.72;26.13;;;;;;;;;;4921056;29;20546;-76
2024/01/12 09:06:31;;;;;;;59.33;28.50;;;;;;;;;;4918122;29;20106;-78
2024/01/12 09:08:58;;;;;;;62.90;29.23;;;;;;;;;;4949939;29;20142;-76
2024/01/12 09:11:25;;;;;;;59.85;27.00;;;;;;;;;;4952497;28;20115;-74
2024/01/12 09:13:52;;;;;;;54.75;27.92;;;;;;;;;;4950229;29;20452;-74
2024/01/12 09:16:19;;;;;;;62.55;29.88;;;;;;;;;;4918219;29;20430;-74
2024/01/12 09:18:48;;;;;;;59.55;27.55;;;;;;;;;;4923292;29;20047;-73
2024/01/12 09:21:15;;;;;;;66.65;30.50;;;;;;;;;;4946380;29;20058;-72
2024/01/12 09:23:43;;;;;;;63.47;30.02;;;;;;;;;;4924390;29;20446;-75
2024/01/12 09:26:11;;;;;;;58.55;30.08;;;;;;;;;;4924265;28;20127;-77
2024/01/12 09:28:38;;;;;;;62.80;31.63;;;;;;;;;;4916100;29;20043;-76
2024/01/12 09:31:06;;;;;;;54.75;29.52;;;;;;;;;;4919666;29;20090;-77
2024/01/12 09:33:33;;;;;;;61.85;28.70;;;;;;;;;;4919826;29;20141;-78
2024/01/12 09:36:03;;;;;;;59.05;29.13;;;;;;;;;;4918655;29;20058;-77
2024/01/12 09:38:30;;;;;;;59.88;28.88;;;;;;;;;;4920577;29;20047;-77
2024/01/12 09:40:58;;;;;;;61.75;29.00;;;;;;;;;;4920323;29;20058;-78
2024/01/12 09:43:27;;;;;;;64.32;32.58;;;;;;;;;;4920233;29;20047;-77
2024/01/12 09:45:54;;;;;;;64.30;31.20;;;;;;;;;;4921181;29;20515;-77
2024/01/12 09:48:21;;;;;;;58.53;30.27;;;;;;;;;;4930733;29;20094;-77
2024/01/12 09:50:48;;;;;;;55.72;30.17;;;;;;;;;;4919606;29;20141;-76
2024/01/12 09:53:15;;;;;;;55.35;28.02;;;;;;;;;;4928992;29;20065;-78
2024/01/12 09:55:42;;;;;;;56.70;29.48;;;;;;;;;;4930912;29;20060;-78
2024/01/12 09:58:10;;;;;;;63.95;28.45;;;;;;;;;;4926298;29;20454;-79
2024/01/12 10:00:38;;;;;;;56.03;28.10;;;;;;;;;;4931323;29;20142;-78
2024/01/12 10:03:05;;;;;;;58.67;28.95;;;;;;;;;;4925135;29;20061;-77
2024/01/12 10:05:35;;;;;;;61.17;28.35;;;;;;;;;;4922544;29;20051;-78
2024/01/12 10:08:11;;;;;;;49.03;24.45;;;;;;;;;;4924673;29;20110;-78
2024/01/12 10:10:39;;;;;;;48.58;24.02;;;;;;;;;;4923335;29;20083;-77
2024/01/12 10:13:05;;;;;;;42.13;23.33;;;;;;;;;;4924315;29;20404;-78
2024/01/12 10:15:39;;;;;;;40.25;22.15;;;;;;;;;;4924752;29;20050;-78
2024/01/12 10:18:06;;;;;;;40.42;21.70;;;;;;;;;;4940368;29;20142;-76
2024/01/12 10:20:37;;;;;;;40.30;22.60;;;;;;;;;;4955936;29;20059;-78
2024/01/12 10:23:04;;;;;;;44.20;22.83;;;;;;;;;;4923399;29;20106;-78
2024/01/12 10:25:31;;;;;;;37.97;20.48;;;;;;;;;;4940358;29;20058;-76
2024/01/12 10:27:58;;;;;;;44.47;20.73;;;;;;;;;;4918480;29;20124;-78
2024/01/12 10:30:26;;;;;;;38.30;21.27;;;;;;;;;;4925039;29;20055;-78
2024/01/12 10:32:53;;;;;;;40.10;21.63;;;;;;;;;;4939860;29;20165;-77
2024/01/12 10:35:20;;;;;;;39.47;20.25;;;;;;;;;;4940450;29;20408;-78
2024/01/12 10:37:48;;;;;;;37.17;20.83;;;;;;;;;;4924372;29;20582;-78
2024/01/12 10:40:16;;;;;;;38.00;20.02;;;;;;;;;;4924956;29;20047;-78
2024/01/12 10:42:52;;;;;;;37.65;18.95;;;;;;;;;;4924249;29;20211;-78
2024/01/12 10:45:22;;;;;;;40.35;21.20;;;;;;;;;;4925597;29;20083;-78
2024/01/12 10:48:04;;;;;;;34.92;18.30;;;;;;;;;;4941126;29;20051;-78
2024/01/12 10:50:35;;;;;;;33.90;19.58;;;;;;;;;;4938744;29;20048;-77
2024/01/12 10:53:08;;;;;;;45.92;21.98;;;;;;;;;;4924839;29;20073;-77
2024/01/12 10:55:35;;;;;;;37.80;22.20;;;;;;;;;;4956887;29;20058;-78
2024/01/12 10:58:04;;;;;;;38.45;20.70;;;;;;;;;;4924455;29;20109;-76
2024/01/12 11:00:31;;;;;;;42.30;21.52;;;;;;;;;;4924165;29;20053;-78
2024/01/12 11:03:00;;;;;;;39.47;21.42;;;;;;;;;;4918973;29;20134;-78
2024/01/12 11:05:28;;;;;;;40.30;21.65;;;;;;;;;;4924307;29;20498;-78
2024/01/12 11:07:59;;;;;;;35.35;19.83;;;;;;;;;;4923739;29;20075;-79
2024/01/12 11:10:26;;;;;;;35.63;19.48;;;;;;;;;;4918673;29;20487;-77
2024/01/12 11:12:53;;;;;;;38.15;21.08;;;;;;;;;;4924427;29;20051;-78
2024/01/12 11:15:25;;;;;;;42.33;21.33;;;;;;;;;;4926710;29;20527;-78
2024/01/12 11:17:52;;;;;;;42.00;22.10;;;;;;;;;;4922767;29;20121;-77
2024/01/12 11:20:20;;;;;;;38.30;20.95;;;;;;;;;;4923179;29;20046;-78
2024/01/12 11:22:49;;;;;;;40.05;21.40;;;;;;;;;;4929259;29;20048;-78
2024/01/12 11:25:18;;;;;;;41.70;21.58;;;;;;;;;;4930480;29;20079;-78
2024/01/12 11:27:52;;;;;;;39.53;20.63;;;;;;;;;;4924041;29;20047;-78
2024/01/12 11:30:20;;;;;;;36.60;21.60;;;;;;;;;;4939062;29;20142;-77
2024/01/12 11:32:48;;;;;;;39.40;20.23;;;;;;;;;;4924033;29;20134;-79
2024/01/12 11:35:17;;;;;;;41.65;21.80;;;;;;;;;;4925321;29;20115;-78
2024/01/12 11:37:46;;;;;;;42.67;21.25;;;;;;;;;;4923698;29;20063;-78
2024/01/12 11:40:14;;;;;;;39.72;21.17;;;;;;;;;;4922326;29;20107;-77
2024/01/12 11:42:42;;;;;;;41.70;21.27;;;;;;;;;;4935459;28;20047;-78
2024/01/12 11:45:10;;;;;;;41.83;21.17;;;;;;;;;;4924690;29;20097;-78
2024/01/12 11:47:42;;;;;;;39.88;20.33;;;;;;;;;;4924682;29;20057;-78
2024/01/12 11:50:13;;;;;;;42.63;20.88;;;;;;;;;;4924405;29;20422;-77
2024/01/12 11:52:40;;;;;;;45.85;22.35;;;;;;;;;;4924644;29;20083;-78
2024/01/12 11:55:08;;;;;;;41.17;23.48;;;;;;;;;;4930037;29;20058;-77
2024/01/12 11:57:35;;;;;;;39.38;20.95;;;;;;;;;;4924038;29;20070;-79
2024/01/12 12:00:06;;;;;;;40.55;21.27;;;;;;;;;;4933637;28;20130;-79
2024/01/12 12:02:36;;;;;;;47.88;22.42;;;;;;;;;;4923812;29;20058;-77
2024/01/12 12:05:09;;;;;;;40.25;21.33;;;;;;;;;;4925378;29;20134;-79
2024/01/12 12:07:37;;;;;;;42.90;21.52;;;;;;;;;;4924532;29;20055;-81
2024/01/12 12:10:05;;;;;;;41.47;21.98;;;;;;;;;;4935403;28;20058;-77
2024/01/12 12:12:32;;;;;;;38.50;21.67;;;;;;;;;;4918764;29;20047;-78
2024/01/12 12:15:06;;;;;;;40.35;21.83;;;;;;;;;;4919518;29;20170;-77
2024/01/12 12:17:38;;;;;;;43.38;22.25;;;;;;;;;;4929493;29;20051;-78
2024/01/12 12:20:08;;;;;;;41.33;22.45;;;;;;;;;;4920613;29;20594;-79
2024/01/12 12:22:35;;;;;;;38.17;20.05;;;;;;;;;;4921551;29;20514;-78
2024/01/12 12:25:02;;;;;;;36.83;20.35;;;;;;;;;;4920656;29;20531;-78
2024/01/12 12:27:30;;;;;;;39.90;20.55;;;;;;;;;;4917908;29;20051;-77
2024/01/12 12:29:57;;;;;;;34.90;20.55;;;;;;;;;;4919877;29;20059;-78
2024/01/12 12:32:23;;;;;;;36.38;19.85;;;;;;;;;;4926986;29;20071;-78
2024/01/12 12:34:51;;;;;;;40.28;20.40;;;;;;;;;;4920535;29;20043;-78
2024/01/12 12:37:17;;;;;;;37.33;20.27;;;;;;;;;;4921232;29;20114;-78
2024/01/12 12:39:44;;;;;;;37.05;20.38;;;;;;;;;;4931575;29;20412;-79
2024/01/12 12:42:12;;;;;;;38.65;20.58;;;;;;;;;;4921217;29;20137;-79
2024/01/12 12:44:40;;;;;;;36.33;20.33;;;;;;;;;;4925586;29;20485;-78
2024/01/12 12:47:07;;;;;;;39.17;21.30;;;;;;;;;;4933364;29;20767;-79
2024/01/12 12:49:39;;;;;;;36.55;20.50;;;;;;;;;;4921700;29;20051;-79
2024/01/12 12:52:06;;;;;;;37.90;20.23;;;;;;;;;;4920968;29;20082;-78
2024/01/12 12:54:33;;;;;;;41.95;21.52;;;;;;;;;;4922444;29;20483;-79
2024/01/12 12:57:00;;;;;;;36.30;20.00;;;;;;;;;;4933306;29;20111;-79
2024/01/12 12:59:33;;;;;;;37.25;21.13;;;;;;;;;;4934462;29;20062;-79
2024/01/12 13:02:00;;;;;;;38.65;20.30;;;;;;;;;;4928817;29;20055;-79
2024/01/12 13:04:27;;;;;;;41.08;19.60;;;;;;;;;;4936439;28;20075;-78
2024/01/12 13:06:54;;;;;;;37.92;19.52;;;;;;;;;;4937730;29;20110;-78
2024/01/12 13:09:21;;;;;;;41.60;19.58;;;;;;;;;;4927230;29;20055;-79
2024/01/12 13:11:48;;;;;;;35.20;19.95;;;;;;;;;;4924627;29;20083;-78
2024/01/12 13:14:15;;;;;;;33.47;19.08;;;;;;;;;;4930191;29;20059;-79
2024/01/12 13:16:42;;;;;;;37.22;21.38;;;;;;;;;;4921657;29;20067;-79
2024/01/12 13:19:09;;;;;;;36.13;18.65;;;;;;;;;;4919716;29;20090;-78
2024/01/12 13:21:48;;;;;;;33.10;18.95;;;;;;;;;;4922246;29;20430;-80
2024/01/12 13:24:15;;;;;;;32.58;18.15;;;;;;;;;;4920490;29;20114;-79
2024/01/12 13:26:42;;;;;;;35.40;19.95;;;;;;;;;;4930272;29;20059;-79
2024/01/12 13:29:09;;;;;;;36.30;19.33;;;;;;;;;;4939505;29;20094;-80
2024/01/12 13:31:37;;;;;;;37.88;19.20;;;;;;;;;;4939292;29;20047;-79
2024/01/12 13:34:04;;;;;;;35.45;18.48;;;;;;;;;;4947798;29;20541;-80
2024/01/12 13:36:34;;;;;;;36.58;19.90;;;;;;;;;;4929818;29;20074;-79
2024/01/12 13:39:18;;;;;;;33.90;18.15;;;;;;;;;;4930571;29;20063;-80
2024/01/12 13:41:45;;;;;;;38.13;19.70;;;;;;;;;;4967933;28;20054;-79
2024/01/12 13:44:13;;;;;;;39.63;19.55;;;;;;;;;;4925097;29;20091;-79
2024/01/12 13:46:40;;;;;;;31.42;18.00;;;;;;;;;;4924243;29;20139;-80
2024/01/12 13:49:07;;;;;;;39.47;18.77;;;;;;;;;;4924829;29;20558;-79
2024/01/12 13:51:34;;;;;;;38.33;19.60;;;;;;;;;;4928108;29;20051;-80
2024/01/12 13:54:04;;;;;;;34.90;19.45;;;;;;;;;;4924669;29;20079;-79
2024/01/12 13:56:31;;;;;;;36.58;19.88;;;;;;;;;;4925543;29;20427;-79
2024/01/12 13:58:58;;;;;;;40.88;19.92;;;;;;;;;;4924113;29;20419;-80
2024/01/12 14:01:26;;;;;;;37.90;20.63;;;;;;;;;;4930615;29;20063;-80
2024/01/12 14:03:52;;;;;;;39.90;21.92;;;;;;;;;;4933988;28;20047;-80
2024/01/12 14:06:19;;;;;;;38.20;20.33;;;;;;;;;;4925547;29;20055;-79
2024/01/12 14:08:47;;;;;;;39.72;20.80;;;;;;;;;;4924149;29;20051;-80
2024/01/12 14:11:13;;;;;;;42.17;20.98;;;;;;;;;;4924570;29;20055;-79
2024/01/12 14:13:40;;;;;;;43.10;22.02;;;;;;;;;;4925574;29;20054;-79
2024/01/12 14:16:07;;;;;;;43.33;21.88;;;;;;;;;;4924320;29;20078;-80
2024/01/12 14:18:34;;;;;;;37.45;20.20;;;;;;;;;;4925460;29;20054;-80